Time;durP1;ratioP1;P1;durP2;ratioP2;P2;SDS_P1;SDS_P2;PMS_P1;PMS_P2;Temp;Humidity;BMP_temperature;BMP_pressure;BME280_temperature;BME280_humidity;BME280_pressure;Samples;Min_cycle;Max_cycle;Signal;HPM_P1;HPM_P2
2022/06/11 00:00:58;;;;;;;17.07;8.67;;;;;;;16.64;100.00;100492.13;7396960;19;20383;-59
2022/06/11 00:03:28;;;;;;;13.10;8.40;;;;;;;16.58;100.00;100492.94;7397435;19;20763;-59
2022/06/11 00:05:57;;;;;;;12.40;8.70;;;;;;;16.68;100.00;100495.63;7399260;19;20428;-58
2022/06/11 00:08:27;;;;;;;12.97;8.97;;;;;;;16.77;100.00;100498.34;7397658;19;20431;-59
2022/06/11 00:11:00;;;;;;;11.43;9.10;;;;;;;16.87;100.00;100494.13;7399401;19;20390;-58
2022/06/11 00:13:29;;;;;;;13.10;8.83;;;;;;;16.84;100.00;100494.97;7397194;19;20457;-59
2022/06/11 00:16:01;;;;;;;11.67;8.70;;;;;;;16.77;100.00;100513.97;7393850;19;20451;-61
2022/06/11 00:18:32;;;;;;;10.10;8.10;;;;;;;16.75;100.00;100505.28;7398922;19;20408;-58
2022/06/11 00:21:02;;;;;;;11.20;8.60;;;;;;;16.72;100.00;100515.66;7390164;19;20386;-60
2022/06/11 00:23:31;;;;;;;12.87;8.70;;;;;;;16.70;100.00;100519.97;7401826;19;20495;-58
2022/06/11 00:26:04;;;;;;;10.13;8.53;;;;;;;16.78;100.00;100520.06;7390469;19;20493;-58
2022/06/11 00:28:34;;;;;;;15.67;10.10;;;;;;;16.80;100.00;100524.44;7398426;19;20405;-58
2022/06/11 00:31:05;;;;;;;14.37;8.83;;;;;;;16.83;100.00;100518.41;7388177;19;20411;-58
2022/06/11 00:33:36;;;;;;;13.10;8.20;;;;;;;16.72;100.00;100526.94;7396678;19;20404;-58
2022/06/11 00:36:08;;;;;;;14.50;8.97;;;;;;;16.82;100.00;100527.06;7389037;19;20389;-58
2022/06/11 00:38:39;;;;;;;10.53;8.10;;;;;;;16.82;100.00;100522.72;7395719;19;20467;-59
2022/06/11 00:41:12;;;;;;;13.10;8.33;;;;;;;16.78;100.00;100525.28;7388675;19;20731;-58
2022/06/11 00:43:42;;;;;;;11.00;8.40;;;;;;;16.80;100.00;100523.56;7395785;19;20410;-58
2022/06/11 00:46:38;;;;;;;11.80;8.37;;;;;;;16.73;100.00;100530.44;7392009;19;20737;-56
2022/06/11 00:49:15;;;;;;;14.30;8.03;;;;;;;16.70;100.00;100530.38;7399679;19;20385;-58
2022/06/11 00:51:44;;;;;;;11.30;8.27;;;;;;;16.64;100.00;100533.78;7390700;19;20416;-58
2022/06/11 00:54:18;;;;;;;11.17;8.20;;;;;;;16.65;100.00;100535.53;7396041;19;20430;-58
2022/06/11 00:56:55;;;;;;;13.40;8.37;;;;;;;16.66;100.00;100539.03;7391094;19;21001;-57
2022/06/11 00:59:30;;;;;;;10.53;8.20;;;;;;;16.58;100.00;100539.81;7397460;19;20453;-56
2022/06/11 01:02:00;;;;;;;10.10;8.50;;;;;;;16.56;100.00;100546.69;7390000;19;20488;-58
2022/06/11 01:04:38;;;;;;;12.43;8.60;;;;;;;16.59;100.00;100546.75;7397119;19;20420;-57
2022/06/11 01:07:23;;;;;;;10.20;8.57;;;;;;;16.61;100.00;100541.53;7387568;19;20425;-58
2022/06/11 01:09:59;;;;;;;15.30;9.20;;;;;;;16.53;100.00;100551.88;7396956;19;20408;-57
2022/06/11 01:12:34;;;;;;;10.53;8.60;;;;;;;16.55;100.00;100557.09;7392069;19;20451;-58
2022/06/11 01:15:12;;;;;;;13.50;9.57;;;;;;;16.62;100.00;100561.56;7395000;19;20434;-58
2022/06/11 01:17:49;;;;;;;13.57;8.67;;;;;;;16.59;100.00;100557.19;7391604;19;20436;-58
2022/06/11 01:20:31;;;;;;;10.80;8.20;;;;;;;16.50;100.00;100561.38;7396261;19;20392;-56
2022/06/11 01:23:33;;;;;;;14.10;8.67;;;;;;;16.40;100.00;100565.59;7390994;19;20417;-58
2022/06/11 01:26:12;;;;;;;11.63;8.87;;;;;;;16.28;100.00;100569.75;7390108;19;20405;-58
2022/06/11 01:28:58;;;;;;;18.87;10.80;;;;;;;16.37;100.00;100570.72;7396352;19;20408;-56
2022/06/11 01:31:34;;;;;;;13.97;10.03;;;;;;;16.45;100.00;100574.31;7389570;19;20412;-57
2022/06/11 01:34:10;;;;;;;13.60;10.30;;;;;;;16.37;100.00;100575.94;7395026;19;20805;-56
2022/06/11 01:36:41;;;;;;;13.73;10.40;;;;;;;16.37;100.00;100586.34;7390854;19;20418;-56
2022/06/11 01:39:16;;;;;;;11.93;9.57;;;;;;;16.38;100.00;100583.78;7398937;19;20814;-58
2022/06/11 01:41:51;;;;;;;14.87;10.30;;;;;;;16.41;100.00;100585.56;7385217;19;20497;-57
2022/06/11 01:44:24;;;;;;;25.07;11.70;;;;;;;16.43;100.00;100586.44;7393861;19;20425;-52
2022/06/11 01:46:57;;;;;;;15.03;10.93;;;;;;;16.47;100.00;100583.03;7390889;19;20414;-56
2022/06/11 01:49:43;;;;;;;14.37;10.63;;;;;;;16.50;100.00;100582.22;7395977;19;20647;-57
2022/06/11 01:52:28;;;;;;;15.30;10.83;;;;;;;16.53;100.00;100580.53;7388185;19;20416;-56
2022/06/11 01:55:06;;;;;;;17.23;10.83;;;;;;;16.55;100.00;100576.22;7393550;19;20426;-55
2022/06/11 01:57:44;;;;;;;22.00;13.70;;;;;;;16.61;100.00;100575.41;7390094;19;20429;-57
2022/06/11 02:00:22;;;;;;;55.27;33.37;;;;;;;16.66;100.00;100568.53;7397470;19;20944;-57
2022/06/11 02:03:17;;;;;;;15.20;10.00;;;;;;;16.65;100.00;100572.00;7389228;19;20418;-58
2022/06/11 02:05:56;;;;;;;44.83;30.57;;;;;;;16.87;100.00;100575.75;7394954;19;20907;-58
2022/06/11 02:08:29;;;;;;;34.37;26.10;;;;;;;16.87;100.00;100575.75;7394907;19;20499;-56
2022/06/11 02:11:06;;;;;;;29.53;17.70;;;;;;;16.83;100.00;100583.53;7395020;19;20723;-57
2022/06/11 02:13:43;;;;;;;18.83;12.57;;;;;;;16.83;100.00;100570.50;7392921;19;20749;-57
2022/06/11 02:16:26;;;;;;;24.13;14.17;;;;;;;16.79;100.00;100569.59;7388896;19;20392;-58
2022/06/11 02:18:59;;;;;;;18.90;13.03;;;;;;;16.71;100.00;100571.19;7394782;19;20394;-58
2022/06/11 02:21:31;;;;;;;11.90;9.50;;;;;;;16.63;100.00;100575.44;7384309;19;20414;-58
2022/06/11 02:24:09;;;;;;;15.70;9.03;;;;;;;16.64;100.00;100574.56;7397150;19;20425;-58
2022/06/11 02:26:42;;;;;;;24.73;13.60;;;;;;;16.65;100.00;100568.50;7387730;19;20409;-58
2022/06/11 02:29:13;;;;;;;12.47;9.40;;;;;;;16.66;100.00;100575.50;7394306;19;20398;-57
2022/06/11 02:31:45;;;;;;;17.67;11.83;;;;;;;16.77;100.00;100580.84;7384166;19;20393;-58
2022/06/11 02:34:20;;;;;;;14.70;8.27;;;;;;;16.89;100.00;100573.19;7393609;19;20448;-58
2022/06/11 02:36:58;;;;;;;18.17;11.50;;;;;;;17.04;100.00;100580.34;7387279;19;20432;-58
2022/06/11 02:39:30;;;;;;;12.03;8.30;;;;;;;17.10;100.00;100569.13;7394855;19;20460;-57
2022/06/11 02:42:00;;;;;;;14.33;8.43;;;;;;;16.92;100.00;100569.75;7381643;19;20453;-59
2022/06/11 02:44:29;;;;;;;13.53;8.13;;;;;;;16.73;100.00;100579.94;7392961;19;20408;-58
2022/06/11 02:46:59;;;;;;;14.07;10.50;;;;;;;16.70;100.00;100585.97;7388067;19;20421;-58
2022/06/11 02:49:34;;;;;;;17.43;9.63;;;;;;;16.65;100.00;100590.22;7394238;19;20402;-58
2022/06/11 02:52:06;;;;;;;16.13;8.27;;;;;;;16.57;100.00;100600.53;7388142;19;20426;-57
2022/06/11 02:54:36;;;;;;;14.90;8.60;;;;;;;16.55;100.00;100602.25;7397071;19;20413;-58
2022/06/11 02:57:08;;;;;;;20.27;12.70;;;;;;;16.56;100.00;100603.13;7387332;19;20411;-59
2022/06/11 02:59:37;;;;;;;14.53;9.47;;;;;;;16.55;100.00;100611.78;7394291;19;20390;-59
2022/06/11 03:02:07;;;;;;;16.70;9.13;;;;;;;16.55;100.00;100607.47;7383903;19;20431;-59
2022/06/11 03:04:40;;;;;;;13.23;9.07;;;;;;;16.57;100.00;100604.88;7398271;19;20780;-58
2022/06/11 03:07:10;;;;;;;16.63;10.20;;;;;;;16.59;100.00;100609.25;7399736;19;20440;-58
2022/06/11 03:09:40;;;;;;;14.17;9.77;;;;;;;16.65;100.00;100612.78;7408040;19;20393;-59
2022/06/11 03:12:11;;;;;;;13.50;9.53;;;;;;;16.65;100.00;100610.19;7397560;19;20415;-58
2022/06/11 03:14:42;;;;;;;16.90;9.27;;;;;;;16.65;100.00;100612.78;7406166;19;20506;-58
2022/06/11 03:17:14;;;;;;;17.40;9.43;;;;;;;16.60;100.00;100615.31;7399008;19;21036;-58
2022/06/11 03:19:47;;;;;;;11.40;8.60;;;;;;;16.57;100.00;100618.75;7407844;19;20396;-58
2022/06/11 03:22:17;;;;;;;17.10;10.23;;;;;;;16.60;100.00;100621.44;7398933;19;20424;-58
2022/06/11 03:24:47;;;;;;;11.33;8.50;;;;;;;16.66;100.00;100622.38;7405430;19;20490;-59
2022/06/11 03:27:17;;;;;;;13.73;8.43;;;;;;;16.78;100.00;100617.34;7401176;19;20943;-58
2022/06/11 03:29:47;;;;;;;11.60;7.90;;;;;;;16.80;100.00;100618.22;7407236;19;20385;-59
2022/06/11 03:32:17;;;;;;;8.00;7.20;;;;;;;16.76;100.00;100626.84;7398218;19;21356;-57
2022/06/11 03:34:49;;;;;;;11.00;7.73;;;;;;;16.75;100.00;100622.50;7405670;19;20398;-59
2022/06/11 03:37:19;;;;;;;13.80;9.90;;;;;;;16.67;100.00;100621.53;7399804;19;20496;-58
2022/06/11 03:39:48;;;;;;;16.63;9.03;;;;;;;16.61;100.00;100632.69;7406948;19;20391;-58
2022/06/11 03:42:18;;;;;;;15.10;8.73;;;;;;;16.68;100.00;100629.34;7399234;19;20763;-58
2022/06/11 03:44:48;;;;;;;13.23;8.07;;;;;;;16.67;100.00;100624.13;7407341;19;20432;-58
2022/06/11 03:47:17;;;;;;;9.83;7.50;;;;;;;16.66;100.00;100630.19;7400041;19;20416;-59
2022/06/11 03:49:50;;;;;;;10.17;7.90;;;;;;;16.58;100.00;100624.84;7406815;19;20393;-59
2022/06/11 03:52:19;;;;;;;9.90;7.87;;;;;;;16.55;100.00;100630.91;7398615;19;20501;-58
2022/06/11 03:54:49;;;;;;;12.20;8.77;;;;;;;16.62;100.00;100630.97;7404855;19;20415;-59
2022/06/11 03:57:19;;;;;;;13.33;9.30;;;;;;;16.64;100.00;100622.34;7399319;19;20427;-58
2022/06/11 03:59:49;;;;;;;36.60;21.93;;;;;;;16.74;100.00;100631.16;7406774;19;20397;-58
2022/06/11 04:02:22;;;;;;;17.63;12.27;;;;;;;16.69;100.00;100635.44;7395156;19;20426;-59
2022/06/11 04:04:54;;;;;;;17.43;11.30;;;;;;;16.67;100.00;100632.78;7404576;19;20428;-58
2022/06/11 04:07:24;;;;;;;16.23;10.87;;;;;;;16.83;100.00;100628.69;7400007;19;20424;-57
2022/06/11 04:09:54;;;;;;;15.63;8.67;;;;;;;16.81;100.00;100633.00;7406466;19;20392;-58
2022/06/11 04:12:23;;;;;;;11.23;8.43;;;;;;;16.71;100.00;100629.38;7398363;19;20415;-59
2022/06/11 04:14:54;;;;;;;18.47;10.70;;;;;;;16.80;100.00;100630.38;7403897;19;20491;-58
2022/06/11 04:17:26;;;;;;;11.83;8.50;;;;;;;16.63;100.00;100635.34;7387059;19;20943;-59
2022/06/11 04:19:58;;;;;;;11.20;7.47;;;;;;;16.54;100.00;100639.56;7399329;19;20388;-58
2022/06/11 04:22:28;;;;;;;13.20;7.97;;;;;;;16.58;100.00;100651.78;7389166;19;20434;-58
2022/06/11 04:24:58;;;;;;;14.17;7.83;;;;;;;16.57;100.00;100643.94;7398465;19;20432;-59
2022/06/11 04:27:28;;;;;;;12.40;8.70;;;;;;;16.61;100.00;100656.13;7391941;19;20422;-58
2022/06/11 04:29:59;;;;;;;11.40;7.30;;;;;;;16.69;100.00;100656.25;7398748;19;20409;-58
2022/06/11 04:32:30;;;;;;;13.53;7.23;;;;;;;16.66;100.00;100661.44;7391761;19;20512;-57
2022/06/11 04:35:03;;;;;;;14.07;8.20;;;;;;;16.73;100.00;100647.66;7396566;19;20941;-58
2022/06/11 04:37:34;;;;;;;14.80;8.20;;;;;;;16.69;100.00;100651.06;7390942;19;20998;-58
2022/06/11 04:40:05;;;;;;;13.37;7.50;;;;;;;16.70;100.00;100651.09;7398633;19;20384;-56
2022/06/11 04:42:34;;;;;;;11.17;7.80;;;;;;;16.72;100.00;100651.97;7388450;19;20506;-58
2022/06/11 04:45:05;;;;;;;10.93;8.20;;;;;;;16.73;100.00;100652.88;7395595;19;20396;-58
2022/06/11 04:47:35;;;;;;;11.70;7.50;;;;;;;16.77;100.00;100651.19;7393636;19;20485;-58
2022/06/11 04:50:09;;;;;;;11.17;8.83;;;;;;;16.81;100.00;100651.22;7398355;19;20464;-58
2022/06/11 04:52:39;;;;;;;11.13;8.20;;;;;;;16.81;100.00;100648.63;7390925;19;20508;-58
2022/06/11 04:55:09;;;;;;;11.67;7.87;;;;;;;16.85;100.00;100642.63;7396150;19;20418;-56
2022/06/11 04:57:39;;;;;;;14.27;8.27;;;;;;;16.81;100.00;100656.44;7393122;19;20976;-58
2022/06/11 05:00:10;;;;;;;14.40;8.33;;;;;;;16.81;100.00;100650.38;7398039;19;20396;-58
2022/06/11 05:02:40;;;;;;;13.40;8.90;;;;;;;16.84;100.00;100656.50;7387412;19;20429;-58
2022/06/11 05:05:13;;;;;;;13.40;9.80;;;;;;;16.88;100.00;100652.22;7395774;19;20401;-58
2022/06/11 05:07:43;;;;;;;11.37;8.67;;;;;;;16.94;100.00;100654.00;7390762;19;20489;-57
2022/06/11 05:10:14;;;;;;;13.17;9.10;;;;;;;17.00;100.00;100669.72;7397718;19;20379;-57
2022/06/11 05:12:44;;;;;;;8.93;7.83;;;;;;;16.98;100.00;100658.41;7391312;19;20431;-58
2022/06/11 05:15:15;;;;;;;13.67;8.40;;;;;;;17.03;100.00;100661.13;7397025;19;20398;-58
2022/06/11 05:17:44;;;;;;;16.70;7.57;;;;;;;17.04;100.00;100663.75;7388464;19;20425;-59
2022/06/11 05:20:18;;;;;;;13.47;8.90;;;;;;;17.06;100.00;100658.53;7397345;19;20406;-58
2022/06/11 05:22:50;;;;;;;16.67;8.30;;;;;;;17.17;100.00;100667.38;7387247;19;20428;-56
2022/06/11 05:25:21;;;;;;;12.87;7.77;;;;;;;17.31;100.00;100669.28;7397689;19;20779;-58
2022/06/11 05:27:51;;;;;;;14.47;8.07;;;;;;;17.40;100.00;100664.19;7387685;19;20414;-59
2022/06/11 05:30:23;;;;;;;18.00;9.93;;;;;;;17.36;100.00;100660.69;7397123;19;20915;-56
2022/06/11 05:32:53;;;;;;;9.47;7.47;;;;;;;17.40;100.00;100662.44;7386456;19;20424;-58
2022/06/11 05:35:27;;;;;;;13.73;8.07;;;;;;;17.38;100.00;100664.16;7398231;19;20411;-58
2022/06/11 05:37:59;;;;;;;16.63;9.70;;;;;;;17.35;100.00;100666.75;7389393;19;21223;-59
2022/06/11 05:40:33;;;;;;;9.40;8.00;;;;;;;17.38;100.00;100669.38;7396785;19;20399;-59
2022/06/11 05:43:02;;;;;;;13.87;7.80;;;;;;;17.47;100.00;100672.94;7388222;19;20445;-58
2022/06/11 05:45:38;;;;;;;13.53;8.10;;;;;;;17.43;100.00;100672.03;7396321;19;20389;-58
2022/06/11 05:48:08;;;;;;;18.67;8.50;;;;;;;17.49;100.00;100666.03;7386390;19;20421;-58
2022/06/11 05:50:43;;;;;;;10.87;8.43;;;;;;;17.56;100.00;100667.84;7396202;19;20397;-58
2022/06/11 05:53:14;;;;;;;11.87;8.50;;;;;;;17.61;100.00;100676.63;7388715;19;20453;-57
2022/06/11 05:55:44;;;;;;;13.43;9.60;;;;;;;17.62;100.00;100667.94;7396002;19;20454;-58
2022/06/11 05:58:17;;;;;;;14.83;9.30;;;;;;;17.62;100.00;100673.16;7388572;19;20421;-58
2022/06/11 06:00:47;;;;;;;34.20;21.10;;;;;;;17.64;100.00;100666.19;7395417;19;20748;-58
2022/06/11 06:03:17;;;;;;;12.70;8.73;;;;;;;17.73;100.00;100659.34;7386552;19;20433;-58
2022/06/11 06:05:49;;;;;;;15.00;8.73;;;;;;;17.80;100.00;100656.81;7395942;19;20928;-58
2022/06/11 06:08:19;;;;;;;14.57;8.60;;;;;;;17.89;100.00;100660.38;7384846;19;20489;-58
2022/06/11 06:10:50;;;;;;;12.60;8.83;;;;;;;18.00;100.00;100655.25;7395606;19;20397;-58
2022/06/11 06:16:02;;;;;;;11.83;8.30;;;;;;;18.15;100.00;100642.38;7387017;19;20452;-59
2022/06/11 06:18:32;;;;;;;14.13;9.03;;;;;;;18.18;100.00;100650.25;7395070;19;20751;-57
2022/06/11 06:21:04;;;;;;;13.57;9.10;;;;;;;18.17;100.00;100648.50;7386446;19;20732;-58
2022/06/11 06:23:34;;;;;;;15.00;10.37;;;;;;;18.30;100.00;100656.44;7393528;19;20441;-57
2022/06/11 06:26:03;;;;;;;12.70;8.87;;;;;;;18.43;100.00;100665.22;7389213;19;20393;-58
2022/06/11 06:28:34;;;;;;;14.70;8.77;;;;;;;18.52;100.00;100667.94;7399130;19;20394;-58
2022/06/11 06:31:06;;;;;;;16.83;10.73;;;;;;;18.54;100.00;100665.31;7388948;19;20411;-58
2022/06/11 06:33:36;;;;;;;16.57;10.37;;;;;;;18.59;100.00;100679.28;7393307;19;20501;-58
2022/06/11 06:36:10;;;;;;;13.37;9.90;;;;;;;18.73;100.00;100685.47;7388746;19;20383;-58
2022/06/11 06:38:41;;;;;;;16.07;10.00;;;;;;;18.84;100.00;100689.91;7393410;19;20749;-55
2022/06/11 06:41:10;;;;;;;21.83;10.30;;;;;;;18.72;100.00;100699.41;7385207;19;20728;-58
2022/06/11 06:43:40;;;;;;;20.40;11.20;;;;;;;18.61;100.00;100693.25;7392423;19;20440;-57
2022/06/11 06:46:10;;;;;;;15.97;11.27;;;;;;;18.61;100.00;100693.25;7388083;19;20391;-54
2022/06/11 06:48:42;;;;;;;19.63;11.07;;;;;;;18.56;100.00;100697.56;7394234;19;20912;-58
2022/06/11 06:51:15;;;;;;;14.37;9.17;;;;;;;18.55;100.00;100699.28;7386879;19;20402;-58
2022/06/11 06:53:45;;;;;;;13.53;8.50;;;;;;;18.60;100.00;100700.19;7392819;19;20429;-59
2022/06/11 06:56:15;;;;;;;14.90;8.90;;;;;;;18.52;100.00;100703.59;7388904;19;20398;-59
2022/06/11 06:58:45;;;;;;;13.83;8.10;;;;;;;18.52;100.00;100706.22;7393720;19;20400;-58
2022/06/11 07:01:14;;;;;;;12.43;8.17;;;;;;;18.58;100.00;100711.50;7385585;19;20387;-59
2022/06/11 07:03:44;;;;;;;11.50;6.97;;;;;;;18.60;100.00;100707.16;7392195;19;20433;-57
2022/06/11 07:06:37;;;;;;;12.30;6.73;;;;;;;18.71;100.00;100708.09;7388868;19;20415;-58
2022/06/11 07:09:07;;;;;;;16.67;7.13;;;;;;;18.67;100.00;100703.72;7394054;19;20992;-58
2022/06/11 07:11:37;;;;;;;11.47;6.77;;;;;;;18.67;100.00;100703.72;7384682;19;20425;-58
2022/06/11 07:14:06;;;;;;;11.30;6.20;;;;;;;18.70;100.00;100703.75;7392597;19;20479;-58
2022/06/11 07:16:40;;;;;;;14.23;8.07;;;;;;;18.62;100.00;100713.28;7388574;19;20965;-58
2022/06/11 07:19:15;;;;;;;13.43;6.80;;;;;;;18.62;100.00;100710.66;7393636;19;20384;-59
2022/06/11 07:21:50;;;;;;;11.67;5.80;;;;;;;18.59;100.00;100710.63;7387507;19;20418;-58
2022/06/11 07:24:23;;;;;;;11.43;6.30;;;;;;;18.42;100.00;100711.38;7392230;19;20418;-58
2022/06/11 07:26:59;;;;;;;11.90;5.53;;;;;;;18.43;100.00;100720.97;7387039;19;20415;-58
2022/06/11 07:29:31;;;;;;;11.47;6.63;;;;;;;18.37;100.00;100720.03;7393284;19;20399;-58
2022/06/11 07:32:03;;;;;;;9.70;5.90;;;;;;;18.52;100.00;100720.19;7386060;19;20415;-58
2022/06/11 07:34:34;;;;;;;14.40;5.97;;;;;;;18.60;100.00;100714.97;7391988;19;20410;-58
2022/06/11 07:37:06;;;;;;;10.57;5.30;;;;;;;18.46;100.00;100720.97;7381968;19;20470;-59
2022/06/11 07:39:36;;;;;;;10.43;5.97;;;;;;;18.45;100.00;100718.34;7393150;19;20460;-58
2022/06/11 07:42:07;;;;;;;9.87;6.10;;;;;;;18.52;100.00;100720.19;7380956;19;20412;-58
2022/06/11 07:44:38;;;;;;;10.77;4.53;;;;;;;18.73;100.00;100719.44;7393023;19;20754;-58
2022/06/11 07:47:08;;;;;;;13.07;5.90;;;;;;;18.73;100.00;100706.38;7384308;19;20415;-58
2022/06/11 07:49:38;;;;;;;12.73;6.20;;;;;;;18.75;100.00;100698.56;7392758;19;20386;-59
2022/06/11 07:52:10;;;;;;;12.10;6.10;;;;;;;18.88;100.00;100699.53;7389593;19;20440;-57
2022/06/11 07:54:40;;;;;;;9.60;5.87;;;;;;;18.95;100.00;100693.47;7398186;19;20415;-58
2022/06/11 07:57:10;;;;;;;10.17;5.10;;;;;;;18.93;100.00;100689.97;7390834;19;20505;-59
2022/06/11 07:59:40;;;;;;;7.90;5.20;;;;;;;18.77;100.00;100694.22;7399717;19;20390;-58
2022/06/11 08:02:09;;;;;;;11.17;5.63;;;;;;;18.89;100.00;100682.97;7384655;19;20418;-58
2022/06/11 08:04:39;;;;;;;14.10;5.33;;;;;;;19.08;100.00;100688.34;7397842;19;20426;-59
2022/06/11 08:07:11;;;;;;;10.67;5.17;;;;;;;19.01;100.00;100690.88;7393005;19;20728;-58
2022/06/11 08:09:41;;;;;;;9.80;5.77;;;;;;;18.96;100.00;100695.22;7399486;19;21087;-57
2022/06/11 08:12:12;;;;;;;13.57;6.50;;;;;;;19.01;100.00;100685.66;7391795;19;20407;-58
2022/06/11 08:14:42;;;;;;;10.67;5.17;;;;;;;19.00;100.00;100696.97;7396798;19;20434;-57
2022/06/11 08:17:12;;;;;;;11.53;5.40;;;;;;;18.80;100.00;100695.97;7393963;19;20411;-58
2022/06/11 08:19:41;;;;;;;13.53;5.20;;;;;;;19.00;100.00;100691.75;7403352;19;20906;-57
2022/06/11 08:22:14;;;;;;;12.33;6.30;;;;;;;19.11;100.00;100697.06;7389464;19;20501;-58
2022/06/11 08:24:43;;;;;;;11.63;6.70;;;;;;;19.09;100.00;100679.63;7396989;19;20506;-58
2022/06/11 08:27:13;;;;;;;15.00;8.80;;;;;;;18.84;100.00;100674.22;7391804;19;20956;-58
2022/06/11 08:29:43;;;;;;;12.27;7.33;;;;;;;18.96;100.00;100679.53;7397232;19;20507;-58
2022/06/11 08:32:12;;;;;;;13.90;6.50;;;;;;;19.32;100.00;100671.03;7384516;19;20435;-58
2022/06/11 08:34:45;;;;;;;13.23;7.10;;;;;;;19.51;100.00;100665.00;7400104;19;20927;-58
2022/06/11 08:37:18;;;;;;;11.20;6.30;;;;;;;19.60;100.00;100656.28;7389530;19;20418;-58
2022/06/11 08:39:48;;;;;;;15.37;8.57;;;;;;;19.55;100.00;100642.31;7396338;19;20387;-58
2022/06/11 08:42:37;;;;;;;14.83;7.77;;;;;;;19.60;100.00;100624.00;7391491;19;20419;-56
2022/06/11 08:45:09;;;;;;;12.83;7.67;;;;;;;19.63;100.00;100627.50;7395719;19;20427;-58
2022/06/11 08:47:45;;;;;;;13.60;6.87;;;;;;;19.61;100.00;100620.53;7387900;19;20844;-58
2022/06/11 08:50:17;;;;;;;12.17;7.07;;;;;;;19.69;100.00;100629.28;7401502;19;20740;-57
2022/06/11 08:52:49;;;;;;;12.30;7.30;;;;;;;19.82;100.00;100630.16;7389663;19;20415;-58
2022/06/11 08:55:21;;;;;;;9.97;6.43;;;;;;;19.64;100.00;100620.53;7398217;19;20392;-58
2022/06/11 08:57:59;;;;;;;8.77;6.47;;;;;;;19.53;100.00;100603.06;7391602;19;20421;-59
2022/06/11 09:00:33;;;;;;;12.80;6.53;;;;;;;19.49;100.00;100614.38;7400496;19;21097;-58
2022/06/11 09:03:13;;;;;;;8.30;5.83;;;;;;;19.97;100.00;100597.91;7388944;19;20425;-58
2022/06/11 09:06:02;;;;;;;20.00;10.63;;;;;;;20.20;100.00;100586.59;7395575;19;20459;-57
2022/06/11 09:08:56;;;;;;;10.77;6.93;;;;;;;20.32;100.00;100590.91;7395608;19;20411;-57
2022/06/11 09:11:35;;;;;;;22.83;8.40;;;;;;;20.44;100.00;100600.50;7391493;19;20403;-55
2022/06/11 09:14:24;;;;;;;13.47;7.40;;;;;;;20.16;100.00;100601.44;7395360;19;20415;-56
2022/06/11 09:17:21;;;;;;;16.80;8.30;;;;;;;19.71;100.00;100593.50;7390954;19;20403;-57
2022/06/11 09:20:04;;;;;;;10.83;7.13;;;;;;;19.95;100.00;100595.28;7396932;19;20383;-56
2022/06/11 09:22:46;;;;;;;11.07;7.70;;;;;;;20.22;100.00;100590.94;7386162;19;20433;-58
2022/06/11 09:25:25;;;;;;;8.57;5.43;;;;;;;20.36;100.00;100598.75;7395321;19;20387;-58
2022/06/11 09:28:03;;;;;;;8.97;5.57;;;;;;;20.40;100.00;100612.72;7389535;19;20410;-58
2022/06/11 09:30:40;;;;;;;9.17;6.23;;;;;;;20.62;100.00;100613.56;7396130;19;20383;-58
2022/06/11 09:33:17;;;;;;;10.07;5.80;;;;;;;20.82;100.00;100617.88;7390415;19;20479;-58
2022/06/11 09:35:53;;;;;;;14.30;7.27;;;;;;;20.33;100.00;100664.28;7396561;19;20388;-58
2022/06/11 09:38:31;;;;;;;24.30;10.63;;;;;;;20.09;100.00;100689.56;7390022;19;20414;-58
2022/06/11 09:41:11;;;;;;;11.80;4.97;;;;;;;20.19;100.00;100736.72;7391202;19;21010;-59
2022/06/11 09:43:45;;;;;;;35.13;13.30;;;;;;;20.53;100.00;100733.25;7394000;19;20411;-59
2022/06/11 09:46:20;;;;;;;20.83;8.80;;;;;;;20.52;100.00;100758.59;7379260;19;20410;-58
2022/06/11 09:49:03;;;;;;;9.47;3.70;;;;;;;20.55;100.00;100800.50;7396243;19;20411;-58
2022/06/11 09:51:40;;;;;;;7.23;3.63;;;;;;;20.87;100.00;100790.97;7388314;19;20405;-57
2022/06/11 09:54:23;;;;;;;27.03;9.10;;;;;;;20.60;100.00;100777.81;7394463;19;20421;-59
2022/06/11 09:57:06;;;;;;;6.10;2.73;;;;;;;20.62;100.00;100757.69;7388196;19;20415;-58
2022/06/11 09:59:41;;;;;;;16.43;6.40;;;;;;;20.81;100.00;100781.28;7395547;19;20725;-58
2022/06/11 10:02:20;;;;;;;9.90;4.10;;;;;;;20.62;100.00;100859.91;7387768;19;20411;-54
2022/06/11 10:04:51;;;;;;;7.60;2.23;;;;;;;20.25;100.00;100854.59;7393787;19;20398;-59
2022/06/11 10:07:24;;;;;;;13.57;6.20;;;;;;;20.00;100.00;100906.88;7386915;19;20391;-59
2022/06/11 10:09:58;;;;;;;6.33;2.00;;;;;;;20.11;100.00;100909.56;7395394;19;20391;-58
2022/06/11 10:12:33;;;;;;;19.13;7.23;;;;;;;20.05;100.00;100918.25;7386750;19;20406;-58
2022/06/11 10:15:07;;;;;;;11.73;5.30;;;;;;;20.13;100.00;100894.72;7390265;19;20423;-59
2022/06/11 10:17:40;;;;;;;37.07;10.70;;;;;;;20.49;100.00;100962.97;7383581;19;20490;-56
2022/06/11 10:20:13;;;;;;;7.53;3.10;;;;;;;20.21;100.00;100948.00;7395009;19;20388;-57
2022/06/11 10:22:47;;;;;;;5.10;2.40;;;;;;;20.34;100.00;100967.28;7385340;19;20407;-57
2022/06/11 10:25:22;;;;;;;18.83;6.37;;;;;;;20.12;100.00;101018.69;7393960;19;20384;-58
2022/06/11 10:27:58;;;;;;;11.13;3.93;;;;;;;20.36;100.00;101114.88;7388520;19;20463;-57
2022/06/11 10:30:36;;;;;;;6.83;2.50;;;;;;;20.61;100.00;101091.44;7394772;19;20380;-55
2022/06/11 10:33:11;;;;;;;10.13;3.23;;;;;;;20.64;100.00;101094.09;7387418;19;20450;-58
2022/06/11 10:35:45;;;;;;;5.17;2.10;;;;;;;20.97;100.00;101044.41;7394888;19;20383;-58
2022/06/11 10:38:25;;;;;;;6.83;2.40;;;;;;;21.51;100.00;101048.91;7384601;19;20494;-58
2022/06/11 10:40:55;;;;;;;23.33;6.73;;;;;;;21.79;100.00;101126.84;7396128;19;20727;-58
2022/06/11 10:43:33;;;;;;;6.93;2.40;;;;;;;21.29;100.00;101140.69;7393085;19;20407;-57
2022/06/11 10:46:04;;;;;;;7.73;3.20;;;;;;;21.31;100.00;101135.47;7383523;19;20451;-59
2022/06/11 10:48:37;;;;;;;12.83;4.50;;;;;;;21.10;100.00;101160.75;7393760;19;20388;-58
2022/06/11 10:51:13;;;;;;;10.67;2.90;;;;;;;21.53;100.00;101167.03;7385556;19;20409;-58
2022/06/11 10:53:50;;;;;;;8.87;3.20;;;;;;;21.54;100.00;101142.53;7392717;19;20411;-59
2022/06/11 10:56:23;;;;;;;7.60;2.73;;;;;;;21.54;100.00;101130.25;7384303;19;20431;-58
2022/06/11 10:58:59;;;;;;;8.83;2.83;;;;;;;21.47;100.00;101132.91;7393785;19;20390;-59
2022/06/11 11:01:31;;;;;;;12.23;3.13;;;;;;;21.39;100.00;101188.84;7387159;19;20985;-55
2022/06/11 11:04:09;;;;;;;5.73;2.37;;;;;;;21.16;100.00;101202.75;7392740;19;20447;-57
2022/06/11 11:06:41;;;;;;;6.30;3.43;;;;;;;20.54;100.00;101176.13;7385746;19;20746;-59
2022/06/11 11:09:14;;;;;;;9.33;3.20;;;;;;;20.68;100.00;101138.66;7393253;19;20470;-59
2022/06/11 11:11:47;;;;;;;10.80;3.17;;;;;;;21.21;100.00;101110.09;7383767;19;20425;-58
2022/06/11 11:14:24;;;;;;;15.13;6.80;;;;;;;20.57;100.00;101105.41;7392507;19;20425;-58
2022/06/11 11:16:55;;;;;;;8.73;3.03;;;;;;;20.83;100.00;101081.06;7385893;19;20421;-58
2022/06/11 11:19:27;;;;;;;12.00;3.87;;;;;;;21.12;100.00;101084.69;7393580;19;20379;-57
2022/06/11 11:21:59;;;;;;;15.83;3.63;;;;;;;21.46;100.00;101074.25;7383027;19;20425;-59
2022/06/11 11:24:33;;;;;;;12.70;5.63;;;;;;;21.27;100.00;101078.63;7391671;19;20768;-58
2022/06/11 11:27:06;;;;;;;18.83;5.93;;;;;;;20.88;100.00;101115.19;7389902;19;20423;-59
2022/06/11 11:29:41;;;;;;;14.60;4.83;;;;;;;21.17;100.00;101103.94;7400724;19;20380;-57
2022/06/11 11:32:29;;;;;;;15.77;4.47;;;;;;;21.04;100.00;101084.66;7391358;19;20546;-58
2022/06/11 11:34:59;;;;;;;11.70;3.30;;;;;;;21.29;100.00;101072.47;7397810;19;20462;-57
2022/06/11 11:37:34;;;;;;;15.77;5.37;;;;;;;20.97;100.00;101027.81;7393059;19;20440;-59
2022/06/11 11:40:05;;;;;;;12.73;5.73;;;;;;;20.82;100.00;100995.38;7401524;19;20775;-59